Latest Weather Observations for Cocos Island

IDW60801

Issued at 9:02 pm WST Saturday 18 April 2015 (issued every 30 minutes, with the page automatically refreshed every 10 minutes)

About weather observations | Map of weather stations | Latest weather observations for WA | Other Formats
Station Details ID: 200284 Name: COCOS ISLAND AIRPORT Lat: -12.19 Lon: 96.83 Height: 3.0 m
Data from the previous 72 hours. | See also: Recent months at Cocos Island
Date/Time
WST
Temp
°C
App
Temp
°C
Dew
Point
Rel
Hum
%
Delta-T
°C
Wind Press
QNH
hPa
Press
MSL
hPa
Rain
since 9 am
mm
Dir
 
Spd
km/h
Gust
km/h
Spd
kts
Gust
kts
18/09:00pm 27.0 31.2 25.3 90 1.2 NW 13 19 7 10 1008.4 - 2.0
18/08:40pm 26.4 31.0 24.7 90 1.2 NW 9 13 5 7 1008.2 - 2.0
18/08:30pm 26.1 30.1 24.4 90 1.2 NW 11 17 6 9 1008.2 - 2.0
18/08:17pm 26.5 27.7 24.5 89 1.4 W 26 32 14 17 1008.1 - 1.2
18/08:00pm 27.7 30.2 24.4 82 2.3 NW 19 24 10 13 1007.8 1007.8 0.0
18/07:30pm 27.6 29.8 24.0 81 2.5 NW 19 24 10 13 1007.5 - 0.0
18/07:00pm 27.8 30.6 24.9 84 2.0 NNW 19 24 10 13 1007.2 - 0.0
18/06:30pm 28.8 30.6 24.2 76 3.2 NW 22 28 12 15 1007.2 - 0.0
18/06:00pm 29.1 31.1 24.5 76 3.2 NW 22 32 12 17 1006.9 - 0.0
18/05:30pm 29.4 30.8 24.2 73 3.6 NW 24 33 13 18 1006.5 - 0.0
18/05:00pm 29.0 30.8 24.9 78 2.9 NNW 24 30 13 16 1006.6 1006.6 0.0
18/04:30pm 29.0 30.7 24.6 77 3.1 NNW 24 30 13 16 1006.6 - 0.0
18/04:00pm 29.3 31.8 25.3 79 2.8 NW 22 30 12 16 1006.7 - 0.0
18/03:30pm 30.1 31.5 24.8 73 3.7 NNW 26 32 14 17 1006.8 - 0.0
18/03:00pm 30.6 32.0 24.8 71 4.1 NW 26 32 14 17 1007.1 - 0.0
18/02:30pm 30.5 32.3 24.8 71 4.0 NW 24 30 13 16 1007.6 - 0.0
18/02:00pm 30.6 31.1 22.7 62 5.4 NNW 24 30 13 16 1007.9 1007.9 0.0
18/01:30pm 30.2 30.0 22.7 64 5.1 NNW 28 37 15 20 1008.3 - 0.0
18/01:00pm 29.9 31.4 24.3 72 3.9 NW 24 33 13 18 1008.8 - 0.0
18/12:30pm 29.1 30.8 24.7 77 3.1 WNW 24 35 13 19 1009.0 - 0.0
18/12:00pm 30.8 31.9 24.4 68 4.5 NW 26 33 14 18 1009.4 - 0.0
18/11:30am 29.9 31.7 24.9 74 3.5 NW 24 32 13 17 1009.5 - 0.0
18/11:00am 29.5 31.0 24.3 73 3.6 WNW 24 32 13 17 1009.5 1009.5 2.0
18/10:30am 29.3 31.3 25.2 78 2.9 WNW 24 35 13 19 1009.3 - 1.8
18/10:00am 29.2 30.8 25.1 78 2.9 NW 26 33 14 18 1008.7 - 1.8
18/08:30am 27.2 29.4 24.3 84 2.0 NW 20 32 11 17 1008.0 - 1.8
18/08:27am 27.0 29.5 24.4 86 1.8 NW 19 32 10 17 1008.0 - 1.8
18/08:05am 26.8 29.3 24.8 89 1.4 NW 20 30 11 16 1007.7 - 1.4
18/08:00am 27.2 29.7 24.8 87 1.7 NW 20 30 11 16 1007.7 1007.7 1.0
18/07:00am 26.8 29.0 24.3 86 1.7 NW 20 28 11 15 1006.9 - 1.0
18/06:30am 26.4 27.8 24.2 88 1.5 NW 24 35 13 19 1006.5 - 1.0
18/06:00am 27.1 28.9 24.2 84 2.0 NW 22 30 12 16 1006.2 - 1.0
18/05:30am 26.9 29.1 24.3 86 1.8 NW 20 28 11 15 1006.2 - 1.0
18/05:00am 26.4 29.1 24.7 90 1.2 NW 19 24 10 13 1006.4 1006.4 1.0
18/04:30am 27.0 29.4 24.6 87 1.7 NW 20 28 11 15 1006.5 - 0.8
18/04:00am 26.9 29.5 24.9 89 1.4 NW 20 26 11 14 1006.8 - 0.8
18/03:30am 26.7 29.0 24.5 88 1.5 NNW 20 30 11 16 1007.3 - 0.8
18/03:00am 26.8 30.1 25.1 90 1.2 NNW 17 22 9 12 1007.5 - 0.8
18/02:31am 26.6 29.4 24.9 90 1.2 NW 19 26 10 14 1007.8 - 0.8
18/02:30am 26.6 29.4 25.0 91 1.1 NW 19 26 10 14 1007.8 - 0.8
18/02:15am 26.6 29.2 24.9 90 1.2 NNW 20 32 11 17 1008.2 - 0.8
18/02:00am 27.0 29.5 24.8 88 1.5 NNW 20 26 11 14 1008.3 1008.3 0.2
18/01:30am 27.3 30.5 24.9 87 1.7 NNW 17 24 9 13 1008.7 - 0.0
18/01:00am 27.2 30.6 24.6 86 1.8 NW 15 20 8 11 1008.8 - 0.0
18/12:30am 27.3 30.5 24.4 84 2.0 NNW 15 20 8 11 1009.2 - 0.0
18/12:00am 27.3 29.3 24.0 82 2.3 NNW 20 28 11 15 1009.2 - 0.0
 
Date/Time
WST
Temp
°C
App
Temp
°C
Dew
Point
Rel
Hum
%
Delta-T
°C
Wind Press
QNH
hPa
Press
MSL
hPa
Rain
since 9 am
mm
Dir
 
Spd
km/h
Gust
km/h
Spd
kts
Gust
kts
17/11:30pm 27.8 30.0 24.3 81 2.4 NW 20 26 11 14 1009.1 - 0.0
17/11:00pm 27.7 30.4 24.2 81 2.4 NW 17 20 9 11 1008.9 1008.9 0.0
17/10:30pm 27.7 30.2 24.4 82 2.3 NW 19 24 10 13 1008.7 - 0.0
17/10:00pm 27.8 30.4 24.0 80 2.6 NW 17 22 9 12 1008.6 - 0.0
17/09:30pm 27.8 30.0 24.0 80 2.6 NW 19 24 10 13 1008.2 - 0.0
17/09:00pm 28.1 29.9 23.6 76 3.1 WNW 20 26 11 14 1007.8 - 0.0
17/08:30pm 28.0 30.4 24.3 80 2.6 WNW 19 22 10 12 1007.4 - 0.0
17/08:00pm 28.0 30.4 24.3 80 2.6 NW 19 24 10 13 1007.2 1007.2 0.0
17/07:30pm 28.2 30.4 24.2 79 2.8 NW 20 26 11 14 1007.0 - 0.0
17/07:00pm 28.3 30.6 24.1 78 2.9 NW 19 26 10 14 1006.8 - 0.0
17/06:30pm 28.7 30.7 23.9 75 3.3 WNW 20 28 11 15 1006.5 - 0.0
17/06:00pm 28.9 31.2 24.5 77 3.1 NW 20 26 11 14 1006.4 - 0.0
17/05:30pm 29.6 31.8 24.3 73 3.7 NW 20 28 11 15 1006.4 - 0.0
17/05:00pm 30.2 32.4 24.8 73 3.8 NW 22 30 12 16 1006.3 1006.3 0.0
17/04:30pm 30.3 32.4 24.7 72 3.9 WNW 22 26 12 14 1006.3 - 0.0
17/04:00pm 29.9 32.1 24.3 72 3.9 WNW 20 28 11 15 1006.6 - 0.0
17/03:30pm 29.7 32.5 25.3 77 3.1 WNW 20 26 11 14 1006.9 - 0.0
17/03:00pm 30.2 33.0 25.2 74 3.5 WNW 20 28 11 15 1007.2 - 0.0
17/02:30pm 30.3 33.1 25.2 74 3.6 WNW 20 28 11 15 1007.4 - 0.0
17/02:00pm 30.6 33.6 25.5 74 3.6 WNW 20 26 11 14 1007.8 1007.8 0.0
17/01:30pm 29.6 32.2 24.9 76 3.3 NW 20 26 11 14 1008.2 - 0.0
17/01:00pm 29.6 32.6 25.3 77 3.0 NW 19 24 10 13 1008.6 - 0.0
17/12:30pm 31.1 34.7 26.1 75 3.6 WNW 19 24 10 13 1008.9 - 0.0
17/12:00pm 29.9 32.8 25.4 77 3.2 NW 20 26 11 14 1009.1 - 0.0
17/11:30am 29.9 33.4 25.5 77 3.1 WNW 17 24 9 13 1009.2 - 0.0
17/11:00am 29.5 32.9 25.2 77 3.0 NW 17 22 9 12 1009.3 1009.3 1.2
17/10:30am 29.5 32.9 25.2 77 3.0 NW 17 22 9 12 1009.2 - 1.2
17/10:00am 29.1 32.3 25.0 78 2.9 NNW 17 20 9 11 1009.1 - 1.0
17/09:30am 28.9 32.8 25.4 81 2.5 NW 15 17 8 9 1009.2 - 1.0
17/09:00am 28.6 32.9 25.5 83 2.2 NW 13 17 7 9 1009.1 - 1.0
17/08:30am 27.1 31.3 24.8 87 1.6 NW 11 13 6 7 1008.9 - 1.0
17/08:00am 26.7 31.3 24.7 89 1.4 NW 9 11 5 6 1008.8 1008.8 1.0
17/07:30am 26.9 30.6 24.6 87 1.6 NW 13 15 7 8 1008.3 - 1.0
17/07:00am 26.8 30.9 24.6 88 1.5 WNW 11 13 6 7 1007.9 - 1.0
17/06:30am 26.6 31.1 24.6 89 1.4 NW 9 13 5 7 1007.8 - 1.0
17/06:00am 26.3 30.9 24.7 91 1.1 NW 9 11 5 6 1007.7 - 1.0
17/05:30am 26.6 31.7 25.0 91 1.1 NW 7 9 4 5 1007.7 - 1.0
17/05:00am 26.7 31.4 25.0 90 1.2 WNW 9 11 5 6 1007.7 1007.7 1.0
17/04:30am 26.5 31.1 24.8 90 1.2 WNW 9 11 5 6 1008.0 - 1.0
17/04:00am 26.7 31.6 24.7 89 1.4 WNW 7 9 4 5 1008.4 - 1.0
17/03:30am 27.3 31.4 24.6 85 1.9 W 11 15 6 8 1008.6 - 1.0
17/03:00am 27.4 31.1 24.5 84 2.0 W 13 15 7 8 1008.8 - 1.0
17/02:30am 27.3 31.6 24.9 87 1.7 W 11 17 6 9 1009.1 - 1.0
17/02:00am 27.2 32.0 25.1 88 1.5 WNW 9 13 5 7 1009.6 1009.6 1.0
17/01:30am 27.2 32.1 25.2 89 1.4 W 9 11 5 6 1009.9 - 1.0
17/01:00am 27.4 32.3 25.3 88 1.5 W 9 11 5 6 1009.9 - 1.0
17/12:30am 27.2 32.5 25.2 89 1.4 W 7 11 4 6 1009.9 - 1.0
17/12:00am 27.5 32.1 25.4 88 1.5 W 11 15 6 8 1009.9 - 1.0
 
Date/Time
WST
Temp
°C
App
Temp
°C
Dew
Point
Rel
Hum
%
Delta-T
°C
Wind Press
QNH
hPa
Press
MSL
hPa
Rain
since 9 am
mm
Dir
 
Spd
km/h
Gust
km/h
Spd
kts
Gust
kts
16/11:30pm 27.7 32.6 24.7 84 2.1 W 7 9 4 5 1010.0 - 1.0
16/11:00pm 27.8 31.9 24.5 82 2.3 WSW 11 13 6 7 1009.9 1009.9 1.0
16/10:30pm 27.9 32.4 24.6 82 2.3 SW 9 11 5 6 1009.9 - 1.0
16/10:00pm 27.8 31.9 24.6 83 2.2 WSW 11 15 6 8 1009.9 - 1.0
16/09:30pm 27.7 32.1 25.0 85 1.9 WSW 11 13 6 7 1009.5 - 1.0
16/09:00pm 27.7 31.7 25.0 85 1.9 SW 13 15 7 8 1009.2 - 1.0
16/08:30pm 27.7 31.7 25.0 85 1.9 WSW 13 17 7 9 1008.9 - 1.0
16/08:00pm 27.8 31.9 25.2 86 1.8 SW 13 17 7 9 1008.5 1008.5 1.0
16/07:30pm 27.9 31.1 25.0 84 2.0 WSW 17 20 9 11 1008.3 - 1.0
16/07:00pm 28.3 31.1 25.0 82 2.3 W 19 24 10 13 1008.0 - 1.0
16/06:30pm 28.4 30.7 25.0 82 2.4 W 22 28 12 15 1007.8 - 1.0
16/06:00pm 28.5 30.5 25.2 82 2.3 W 24 30 13 16 1007.6 - 1.0
16/05:30pm 29.0 31.5 25.9 83 2.2 W 24 32 13 17 1007.4 - 1.0
16/05:11pm 29.0 31.5 26.0 84 2.1 W 24 32 13 17 1007.3 - 1.0
16/05:00pm 28.3 31.7 26.2 88 1.5 W 20 30 11 16 1007.3 1007.3 1.0
16/04:46pm 28.5 30.6 25.4 83 2.2 W 24 35 13 19 1007.4 - 0.8
16/04:30pm 30.1 32.0 25.6 77 3.2 W 26 32 14 17 1007.3 - 0.8
16/04:00pm 29.8 32.1 25.7 78 2.9 WNW 24 30 13 16 1007.5 - 0.8
16/03:30pm 29.1 31.6 26.0 83 2.2 WNW 24 30 13 16 1007.6 - 0.8
16/03:00pm 29.5 32.4 26.0 81 2.5 WNW 22 30 12 16 1007.7 - 0.8
16/02:30pm 30.3 32.7 26.4 79 2.8 WNW 26 35 14 19 1008.0 - 0.8
16/02:00pm 29.1 31.8 26.2 84 2.1 WNW 24 33 13 18 1008.4 1008.4 0.6
16/01:56pm 28.8 31.2 26.3 86 1.8 WNW 26 33 14 18 1008.5 - 0.6
16/01:30pm 29.3 31.9 26.1 83 2.3 WNW 24 33 13 18 1008.8 - 0.6
16/01:00pm 31.0 34.2 27.0 79 2.9 WNW 24 30 13 16 1009.2 - 0.6
16/12:30pm 28.9 31.3 25.8 83 2.2 WNW 24 33 13 18 1009.6 - 0.6
16/12:00pm 28.4 29.4 25.4 84 2.1 NW 30 43 16 23 1010.0 - 0.6
16/11:30am 29.7 31.2 25.6 78 2.9 NW 28 37 15 20 1010.1 - 0.0
16/11:00am 29.0 30.5 25.0 79 2.8 NW 26 33 14 18 1009.9 1009.9 12.0
16/10:30am 28.8 30.4 25.2 81 2.5 NW 26 35 14 19 1009.6 - 12.0
16/10:00am 29.7 31.7 25.8 79 2.8 NW 26 35 14 19 1009.3 - 12.0
16/09:30am 27.1 28.6 25.5 91 1.1 NNW 28 37 15 20 1009.2 - 12.0
16/09:00am 28.6 30.7 25.3 82 2.3 NNW 24 32 13 17 1008.8 - 12.0
16/08:30am 27.8 29.3 24.9 84 2.0 NW 26 32 14 17 1008.5 - 12.0
16/08:00am 27.4 29.6 24.8 86 1.8 NW 22 32 12 17 1008.2 1008.2 12.0
16/07:30am 27.4 29.3 25.0 87 1.7 NW 24 33 13 18 1007.8 - 12.0
16/07:00am 27.5 28.6 24.9 86 1.8 NW 28 35 15 19 1007.6 - 12.0
16/06:30am 27.3 30.3 25.6 90 1.2 NNW 20 30 11 16 1007.4 - 12.0
16/06:00am 27.4 29.5 25.3 88 1.5 NNW 24 33 13 18 1007.3 - 12.0
16/05:30am 27.3 29.6 25.0 87 1.6 NW 22 32 12 17 1007.4 - 12.0
16/05:09am 26.9 29.7 25.3 91 1.1 NW 20 28 11 15 1007.6 - 12.0
16/05:00am 26.8 29.2 25.2 91 1.1 NW 22 30 12 16 1007.7 1007.7 12.0
16/04:53am 26.9 29.7 25.3 91 1.1 NNW 20 28 11 15 1007.8 - 11.8
16/04:30am 27.5 30.1 24.9 86 1.8 NNW 20 30 11 16 1008.1 - 11.8
16/04:00am 27.4 28.7 25.3 88 1.5 NW 28 39 15 21 1008.2 - 11.8
16/03:30am 27.2 29.0 24.3 84 2.0 NNW 22 30 12 16 1008.4 - 11.8
16/03:00am 27.0 29.6 24.6 87 1.7 NNW 19 28 10 15 1008.6 - 11.8
16/02:30am 27.0 30.1 25.4 91 1.1 NNW 19 28 10 15 1009.0 - 11.8
16/02:00am 26.6 28.8 25.5 94 0.8 NW 24 30 13 16 1009.2 1009.2 11.8
16/01:30am 26.9 29.7 25.2 90 1.2 NNW 20 32 11 17 1009.3 - 11.8
16/01:11am 26.2 29.0 25.2 94 0.7 NNW 20 30 11 16 1009.6 - 11.6
16/01:00am 26.4 29.1 25.1 92 0.9 NNW 20 28 11 15 1009.7 - 11.0
16/12:45am 26.8 30.1 25.7 94 0.8 NNW 19 24 10 13 1009.7 - 11.0
16/12:40am 26.6 30.5 25.5 94 0.8 NNW 15 24 8 13 1009.8 - 11.0
16/12:30am 26.5 30.4 25.5 94 0.7 NNW 15 20 8 11 1009.9 - 11.0
16/12:24am 27.0 30.6 25.6 92 1.0 NNW 17 19 9 10 1010.0 - 10.2
16/12:00am 26.7 30.6 24.8 89 1.3 NW 13 19 7 10 1010.1 - 10.0
 
Date/Time
WST
Temp
°C
App
Temp
°C
Dew
Point
Rel
Hum
%
Delta-T
°C
Wind Press
QNH
hPa
Press
MSL
hPa
Rain
since 9 am
mm
Dir
 
Spd
km/h
Gust
km/h
Spd
kts
Gust
kts
15/11:30pm 26.3 29.7 24.7 91 1.1 NW 15 20 8 11 1010.1 - 9.6
15/11:00pm 26.1 28.8 24.2 89 1.3 NW 17 20 9 11 1010.3 1010.3 9.4

Other Formats:

Comma delimited format used in spreadsheet applications
http://www.bom.gov.au/fwo/IDW60801/IDW60801.96996.axf

JavaScript Object Notation format (JSON) in row-major order
http://www.bom.gov.au/fwo/IDW60801/IDW60801.96996.json